Time;durP1;ratioP1;P1;durP2;ratioP2;P2;SDS_P1;SDS_P2;PMS_P1;PMS_P2;Temp;Humidity;BMP_temperature;BMP_pressure;BME280_temperature;BME280_humidity;BME280_pressure;Samples;Min_cycle;Max_cycle;Signal;HPM_P1;HPM_P2
2021/09/07 00:00:29;;;;;;;10.15;5.47;;;;;;;13.69;60.08;101701.84;1718914;82;20928;-78
2021/09/07 00:02:56;;;;;;;9.03;5.25;;;;;;;13.69;60.14;101697.95;1723499;82;20933;-78
2021/09/07 00:05:22;;;;;;;9.08;5.60;;;;;;;13.68;60.16;101694.48;1708681;83;20956;-78
2021/09/07 00:07:49;;;;;;;6.90;5.25;;;;;;;13.67;60.21;101690.61;1715806;82;21128;-78
2021/09/07 00:10:15;;;;;;;9.58;5.30;;;;;;;13.66;60.28;101694.09;1715963;82;21108;-78
2021/09/07 00:12:43;;;;;;;11.80;5.70;;;;;;;13.65;60.28;101691.92;1698670;83;21806;-78
2021/09/07 00:15:16;;;;;;;12.45;5.80;;;;;;;13.65;60.30;101687.16;1677603;84;21055;-78
2021/09/07 00:17:43;;;;;;;7.75;5.37;;;;;;;13.64;60.38;101681.55;1678972;84;20923;-78
2021/09/07 00:20:11;;;;;;;12.15;5.97;;;;;;;13.61;60.38;101676.38;1669536;84;25537;-79
2021/09/07 00:22:39;;;;;;;9.35;5.42;;;;;;;13.58;60.45;101665.58;1688256;83;20956;-79
2021/09/07 00:25:07;;;;;;;7.15;5.75;;;;;;;13.56;60.48;101661.70;1667392;84;28088;-79
2021/09/07 00:27:34;;;;;;;8.93;5.25;;;;;;;13.55;60.54;101658.69;1678899;84;20892;-79
2021/09/07 00:30:00;;;;;;;10.20;5.62;;;;;;;13.56;60.60;101658.24;1678347;84;20880;-79
2021/09/07 00:32:26;;;;;;;11.88;5.97;;;;;;;13.54;60.63;101667.36;1642381;84;20944;-79
2021/09/07 00:34:52;;;;;;;9.48;5.65;;;;;;;13.53;60.63;101663.03;1677617;84;20968;-79
2021/09/07 00:37:19;;;;;;;9.30;5.47;;;;;;;13.51;60.68;101658.33;1677098;84;20913;-79
2021/09/07 00:39:45;;;;;;;9.00;5.95;;;;;;;13.50;60.77;101657.05;1677656;84;20968;-79
2021/09/07 00:42:15;;;;;;;11.50;5.83;;;;;;;13.48;60.72;101657.50;1677645;84;20956;-79
2021/09/07 00:44:42;;;;;;;8.18;5.40;;;;;;;13.45;60.81;101654.50;1669820;84;21339;-79
2021/09/07 00:47:08;;;;;;;;;;;;;;;13.45;60.84;101653.64;1680828;84;21043;-79
2021/09/07 00:49:36;;;;;;;9.55;5.50;;;;;;;13.42;61.24;101648.03;1677642;84;20196;-79
2021/09/07 00:52:06;;;;;;;7.40;5.58;;;;;;;13.40;60.89;101642.44;1656319;85;21122;-79
2021/09/07 00:54:36;;;;;;;8.90;6.08;;;;;;;13.38;60.98;101635.09;1669780;84;21158;-79
2021/09/07 00:57:07;;;;;;;11.03;6.00;;;;;;;13.37;61.03;101633.37;1677539;84;21067;-79
2021/09/07 00:59:34;;;;;;;7.25;5.33;;;;;;;13.37;61.02;101634.67;1674772;84;21114;-79
2021/09/07 01:02:02;;;;;;;9.65;6.08;;;;;;;13.35;61.05;101638.59;1677431;84;21055;-78
2021/09/07 01:04:28;;;;;;;8.00;5.80;;;;;;;13.34;61.07;101639.91;1676325;84;21080;-78
2021/09/07 01:06:55;;;;;;;10.03;5.78;;;;;;;13.34;61.16;101636.01;1675902;85;20983;-78
2021/09/07 01:09:22;;;;;;;;;;;;;;;13.33;61.31;101631.69;1680731;84;20875;-78
2021/09/07 01:11:48;;;;;;;8.70;5.28;;;;;;;13.32;61.71;101631.27;1679432;84;20450;-78
2021/09/07 01:14:18;;;;;;;10.73;5.83;;;;;;;13.29;61.16;101633.45;1666981;85;20903;-78
2021/09/07 01:16:43;;;;;;;7.83;5.55;;;;;;;13.29;61.16;101633.45;1718236;82;21317;-78
2021/09/07 01:19:09;;;;;;;8.60;6.83;;;;;;;13.24;61.30;101632.20;1718546;82;20871;-78
2021/09/07 01:21:40;;;;;;;12.13;7.00;;;;;;;13.25;61.40;101634.37;1713246;82;20899;-78
2021/09/07 01:24:06;;;;;;;9.80;7.00;;;;;;;13.25;61.42;101635.67;1748420;81;20913;-78
2021/09/07 01:26:32;;;;;;;9.65;6.67;;;;;;;13.25;61.51;101627.88;1748199;81;20920;-78
2021/09/07 01:29:01;;;;;;;12.47;7.03;;;;;;;13.25;61.54;101610.55;1717506;81;20933;-78
2021/09/07 01:31:28;;;;;;;12.60;7.15;;;;;;;13.27;61.57;101607.08;1721801;82;20991;-78
2021/09/07 01:33:54;;;;;;;14.13;6.53;;;;;;;13.25;61.60;101605.80;1711878;82;21024;-79
2021/09/07 01:36:22;;;;;;;9.23;6.17;;;;;;;13.22;61.62;101606.69;1701774;82;21088;-79
2021/09/07 01:38:48;;;;;;;9.88;6.47;;;;;;;13.22;61.65;101601.50;1709073;83;21053;-79
2021/09/07 01:41:15;;;;;;;10.45;6.53;;;;;;;13.22;61.71;101601.94;1701156;83;21080;-79
2021/09/07 01:43:45;;;;;;;10.35;6.03;;;;;;;13.22;61.75;101600.20;1680807;82;21016;-79
2021/09/07 01:46:11;;;;;;;9.50;6.00;;;;;;;13.22;61.78;101602.80;1680882;84;21056;-79
2021/09/07 01:48:37;;;;;;;10.58;5.95;;;;;;;13.24;61.83;101606.67;1681370;83;21135;-79
2021/09/07 01:51:04;;;;;;;6.97;5.60;;;;;;;13.21;61.82;101604.97;1706187;82;21057;-79
2021/09/07 01:53:30;;;;;;;9.68;5.95;;;;;;;13.22;61.87;101607.13;1709513;83;21076;-79
2021/09/07 01:55:59;;;;;;;9.48;5.78;;;;;;;13.21;61.91;101606.27;1703784;83;21097;-79
2021/09/07 01:58:27;;;;;;;6.83;5.65;;;;;;;13.21;61.97;101608.01;1680653;82;21059;-79
2021/09/07 02:00:54;;;;;;;9.95;5.50;;;;;;;13.21;61.99;101606.27;1699032;83;21115;-79
2021/09/07 02:03:20;;;;;;;9.38;5.37;;;;;;;13.22;62.03;101614.48;1673477;83;21092;-79
2021/09/07 02:05:50;;;;;;;9.80;5.37;;;;;;;13.22;62.06;101609.73;1709220;82;21369;-79
2021/09/07 02:08:16;;;;;;;7.83;5.67;;;;;;;13.23;62.12;101608.41;1697011;82;21254;-79
2021/09/07 02:10:42;;;;;;;9.55;5.67;;;;;;;13.25;62.11;101612.30;1699230;82;21056;-79
2021/09/07 02:13:09;;;;;;;8.00;5.50;;;;;;;13.23;62.18;101607.11;1680741;82;21056;-79
2021/09/07 02:15:35;;;;;;;7.45;5.30;;;;;;;13.24;62.15;101610.57;1680628;84;21309;-79
2021/09/07 02:18:07;;;;;;;6.12;5.08;;;;;;;13.23;62.25;101610.15;1680281;83;21076;-79
2021/09/07 02:20:33;;;;;;;11.95;5.85;;;;;;;13.24;62.22;101609.27;1703758;82;20992;-79
2021/09/07 02:23:00;;;;;;;7.92;6.20;;;;;;;13.23;62.31;101604.52;1709134;83;21124;-79
2021/09/07 02:25:28;;;;;;;12.33;5.62;;;;;;;13.23;62.41;101601.92;1709035;83;21069;-79
2021/09/07 02:27:55;;;;;;;14.30;6.15;;;;;;;13.23;62.34;101596.72;1713061;82;20940;-79
2021/09/07 02:30:21;;;;;;;6.85;5.15;;;;;;;13.21;62.37;101595.87;1719752;82;20929;-79
2021/09/07 02:32:47;;;;;;;6.10;5.37;;;;;;;13.22;62.46;101598.04;1720122;82;20917;-79
2021/09/07 02:35:14;;;;;;;6.37;5.45;;;;;;;13.21;62.45;101597.62;1718810;83;20932;-79
2021/09/07 02:37:41;;;;;;;8.63;5.05;;;;;;;13.16;62.41;101595.07;1712878;83;20933;-79
2021/09/07 02:40:08;;;;;;;5.95;4.62;;;;;;;13.13;62.55;101597.66;1714617;81;20901;-79
2021/09/07 02:42:41;;;;;;;6.42;5.05;;;;;;;13.13;62.62;101597.66;1720951;83;20893;-79
2021/09/07 02:45:08;;;;;;;6.00;4.87;;;;;;;13.11;62.60;101595.96;1720510;83;21325;-79
2021/09/07 02:47:34;;;;;;;6.92;4.97;;;;;;;13.09;62.66;101593.37;1713465;82;26524;-79
2021/09/07 02:50:00;;;;;;;11.63;5.42;;;;;;;13.06;62.67;101592.11;1720246;82;21394;-79
2021/09/07 02:52:27;;;;;;;7.67;4.97;;;;;;;13.05;62.73;101592.98;1719739;82;20964;-79
2021/09/07 02:54:53;;;;;;;7.40;5.08;;;;;;;13.02;62.71;101597.36;1719788;82;20901;-79
2021/09/07 02:57:19;;;;;;;6.85;5.00;;;;;;;12.98;62.82;101591.36;1719080;83;21351;-79
2021/09/07 02:59:46;;;;;;;7.90;4.87;;;;;;;12.97;62.88;101593.98;1720481;82;21422;-79
2021/09/07 03:02:12;;;;;;;8.15;5.30;;;;;;;12.94;62.91;101592.27;1709345;82;20854;-79
2021/09/07 03:04:38;;;;;;;6.72;4.65;;;;;;;12.92;62.95;101591.42;1718872;83;20934;-79
2021/09/07 03:07:05;;;;;;;7.00;4.75;;;;;;;12.91;63.01;101594.89;1719851;83;20952;-79
2021/09/07 03:09:33;;;;;;;7.40;4.50;;;;;;;12.89;63.06;101594.05;1720025;81;20944;-79
2021/09/07 03:12:00;;;;;;;8.63;4.90;;;;;;;12.86;63.03;101588.45;1719744;81;21024;-79
2021/09/07 03:14:26;;;;;;;6.45;4.25;;;;;;;12.81;63.06;101581.14;1719235;83;21064;-79
2021/09/07 03:16:52;;;;;;;8.55;4.97;;;;;;;12.78;63.11;101583.77;1648543;82;5000553;-79
2021/09/07 03:19:19;;;;;;;5.60;4.47;;;;;;;12.75;63.16;101580.34;1712856;81;21410;-79
2021/09/07 03:21:45;;;;;;;6.20;4.85;;;;;;;12.71;63.13;101582.55;1720954;81;21378;-79
2021/09/07 03:24:11;;;;;;;7.75;5.20;;;;;;;12.64;63.16;101576.98;1720393;83;20893;-79
2021/09/07 03:26:38;;;;;;;7.30;4.53;;;;;;;12.56;63.17;101577.91;1720003;82;20886;-79
2021/09/07 03:29:10;;;;;;;8.40;4.78;;;;;;;12.53;63.25;101575.78;1745736;81;21447;-79
2021/09/07 03:31:37;;;;;;;7.87;4.65;;;;;;;12.49;63.36;101583.16;1709218;83;20881;-79
2021/09/07 03:34:04;;;;;;;8.40;4.53;;;;;;;12.45;63.41;101579.77;1724577;81;21119;-79
2021/09/07 03:36:31;;;;;;;7.08;4.67;;;;;;;12.43;63.45;101582.81;1727621;81;20885;-79
2021/09/07 03:38:57;;;;;;;6.70;4.95;;;;;;;12.40;63.50;101585.43;1726770;81;20968;-79
2021/09/07 03:41:26;;;;;;;8.73;4.17;;;;;;;12.36;63.49;101585.46;1726782;82;21004;-79
2021/09/07 03:43:53;;;;;;;5.65;4.45;;;;;;;12.31;63.50;101595.01;1727300;83;21030;-79
2021/09/07 03:46:20;;;;;;;7.72;4.90;;;;;;;12.23;63.52;101587.28;1722674;81;20960;-79
2021/09/07 03:48:48;;;;;;;8.80;5.05;;;;;;;12.16;63.54;101594.68;1730165;81;21149;-79
2021/09/07 03:51:15;;;;;;;6.83;4.28;;;;;;;12.09;63.62;101592.56;1727480;81;21436;-79
2021/09/07 03:53:41;;;;;;;8.60;4.25;;;;;;;12.05;63.70;101603.82;1724718;82;21344;-79
2021/09/07 03:56:07;;;;;;;5.97;3.70;;;;;;;12.00;63.71;101604.28;1716569;83;20925;-79
2021/09/07 03:58:34;;;;;;;5.60;3.80;;;;;;;11.95;63.73;101602.63;1725605;82;21028;-79
2021/09/07 04:01:03;;;;;;;8.38;4.30;;;;;;;11.90;63.76;101602.64;1724407;81;21055;-79
2021/09/07 04:03:29;;;;;;;5.35;4.58;;;;;;;11.83;63.73;101603.11;1728511;81;21064;-79
2021/09/07 04:05:56;;;;;;;5.60;4.25;;;;;;;11.77;63.82;101608.33;1726706;81;21075;-79
2021/09/07 04:08:28;;;;;;;7.87;4.85;;;;;;;11.70;63.84;101603.15;1725614;83;21082;-79
2021/09/07 04:10:55;;;;;;;6.42;5.20;;;;;;;11.64;64.00;101601.44;1726753;83;21020;-79
2021/09/07 04:13:21;;;;;;;6.70;4.60;;;;;;;11.62;64.03;101605.77;1716836;81;21547;-78
2021/09/07 04:15:49;;;;;;;4.80;4.12;;;;;;;11.59;64.09;101610.53;1726292;81;21075;-78
2021/09/07 04:18:16;;;;;;;5.92;4.50;;;;;;;11.55;64.05;101605.38;1670748;83;21361;-79
2021/09/07 04:20:43;;;;;;;;;;;;;;;11.50;64.11;101605.39;1679934;83;21078;-79
2021/09/07 04:23:09;;;;;;;5.35;4.10;;;;;;;11.48;64.55;101609.71;1689811;84;20178;-79
2021/09/07 04:25:37;;;;;;;6.62;4.58;;;;;;;11.43;64.18;101605.02;1726898;83;21574;-79
2021/09/07 04:28:04;;;;;;;4.47;3.95;;;;;;;11.38;64.17;101608.05;1712890;83;21519;-79
2021/09/07 04:30:30;;;;;;;4.65;4.10;;;;;;;11.35;64.22;101609.36;1716398;82;21367;-79
2021/09/07 04:32:57;;;;;;;7.15;3.98;;;;;;;11.33;64.21;101611.52;1713017;82;21048;-80
2021/09/07 04:35:23;;;;;;;5.37;4.53;;;;;;;11.28;64.28;101614.13;1713600;82;21074;-79
2021/09/07 04:37:49;;;;;;;13.93;4.83;;;;;;;11.27;64.42;101618.88;1708845;82;21036;-79
2021/09/07 04:40:16;;;;;;;7.17;4.80;;;;;;;11.26;64.45;101621.89;1717430;83;21058;-79
2021/09/07 04:42:43;;;;;;;6.40;4.35;;;;;;;11.26;64.55;101623.19;1715866;82;21093;-79
2021/09/07 04:45:09;;;;;;;6.35;4.15;;;;;;;11.31;64.67;101617.14;1716851;82;21043;-79
2021/09/07 04:47:36;;;;;;;8.78;4.75;;;;;;;11.34;64.71;101615.40;1715104;82;21060;-79
2021/09/07 04:50:03;;;;;;;9.53;5.10;;;;;;;11.37;64.65;101616.69;1717205;82;21611;-79
2021/09/07 04:52:30;;;;;;;8.30;5.37;;;;;;;11.38;64.68;101617.11;1716851;82;20933;-79
2021/09/07 04:54:56;;;;;;;9.88;5.75;;;;;;;11.41;64.76;101622.72;1717435;82;26606;-79
2021/09/07 04:57:22;;;;;;;8.75;5.65;;;;;;;11.45;64.86;101625.69;1715033;82;22114;-79
2021/09/07 04:59:49;;;;;;;8.60;5.67;;;;;;;11.50;64.91;101627.41;1716683;82;21076;-79
2021/09/07 05:02:15;;;;;;;7.92;5.90;;;;;;;11.57;65.04;101620.03;1710989;82;21147;-79
2021/09/07 05:04:42;;;;;;;9.35;6.20;;;;;;;11.68;65.09;101621.29;1716419;82;20983;-79
2021/09/07 05:07:11;;;;;;;8.68;5.17;;;;;;;11.77;65.13;101626.90;1682496;82;681115;-79
2021/09/07 05:09:37;;;;;;;6.90;5.25;;;;;;;11.86;65.13;101628.16;1710923;82;21405;-79
2021/09/07 05:12:05;;;;;;;7.03;5.33;;;;;;;11.92;65.18;101628.12;1715323;82;22276;-79
2021/09/07 05:14:31;;;;;;;10.45;5.40;;;;;;;12.01;65.25;101624.59;1708212;82;21003;-79
2021/09/07 05:16:57;;;;;;;8.70;5.10;;;;;;;12.07;65.22;101628.44;1703283;82;21088;-79
2021/09/07 05:19:24;;;;;;;6.00;4.90;;;;;;;12.19;65.32;101630.53;1706542;82;21673;-79
2021/09/07 05:21:51;;;;;;;11.65;5.65;;;;;;;12.36;65.43;101628.26;1706199;82;20972;-79
2021/09/07 05:24:17;;;;;;;6.62;5.60;;;;;;;12.49;65.46;101632.02;1701228;82;21044;-79
2021/09/07 05:26:43;;;;;;;9.83;5.00;;;;;;;12.65;65.52;101637.95;1701075;82;21555;-79
2021/09/07 05:29:10;;;;;;;8.28;5.03;;;;;;;12.80;65.57;101636.52;1715238;82;21059;-79
2021/09/07 05:31:36;;;;;;;7.10;5.80;;;;;;;12.95;65.62;101639.86;1703678;82;21052;-79
2021/09/07 05:34:03;;;;;;;8.18;5.55;;;;;;;13.08;65.60;101641.44;1717465;81;21299;-79
2021/09/07 05:36:29;;;;;;;12.47;5.85;;;;;;;13.21;65.65;101643.06;1718362;82;21445;-79
2021/09/07 05:38:56;;;;;;;18.00;6.10;;;;;;;13.34;65.60;101649.00;1717605;81;20921;-79
2021/09/07 05:41:22;;;;;;;19.37;5.70;;;;;;;13.45;65.66;101638.91;1720781;81;21520;-79
2021/09/07 05:43:49;;;;;;;12.45;5.45;;;;;;;13.59;65.64;101633.08;1718179;82;21414;-79
2021/09/07 05:46:15;;;;;;;7.42;5.65;;;;;;;13.73;65.65;101641.15;1712147;81;21374;-79
2021/09/07 05:48:41;;;;;;;10.15;5.72;;;;;;;13.86;65.62;101633.17;1719916;82;20942;-79
2021/09/07 05:51:08;;;;;;;9.03;5.97;;;;;;;14.02;65.69;101639.47;1718582;82;20910;-79
2021/09/07 05:53:34;;;;;;;13.20;5.40;;;;;;;14.16;65.62;101638.81;1716450;82;20901;-79
2021/09/07 05:56:00;;;;;;;7.08;5.58;;;;;;;14.30;65.69;101630.80;1718126;82;20902;-79
2021/09/07 05:58:33;;;;;;;10.78;5.73;;;;;;;14.48;65.66;101633.16;1677252;82;10000596;-79
2021/09/07 06:00:59;;;;;;;7.78;5.55;;;;;;;14.67;65.75;101632.39;1713604;81;21535;-79
2021/09/07 06:03:26;;;;;;;8.78;5.40;;;;;;;14.90;65.75;101627.66;1717604;82;21272;-79
2021/09/07 06:05:53;;;;;;;8.15;6.15;;;;;;;15.14;65.65;101632.39;1716759;82;21545;-79
2021/09/07 06:08:19;;;;;;;8.93;5.77;;;;;;;15.37;65.55;101637.62;1719348;81;22110;-79
2021/09/07 06:10:46;;;;;;;8.20;5.30;;;;;;;15.62;65.62;101640.60;1601868;82;10000550;-79
2021/09/07 06:13:13;;;;;;;11.25;5.65;;;;;;;15.91;65.59;101643.91;1713837;82;21668;-79
2021/09/07 06:15:41;;;;;;;5.83;4.75;;;;;;;16.20;65.57;101642.79;1722770;82;21364;-79
2021/09/07 06:18:08;;;;;;;10.53;6.28;;;;;;;16.49;65.49;101649.50;1716669;81;21552;-79
2021/09/07 06:20:35;;;;;;;10.18;5.60;;;;;;;16.80;65.47;101653.98;1718791;82;20985;-79
2021/09/07 06:23:01;;;;;;;12.15;5.60;;;;;;;17.05;65.37;101652.45;1717074;81;21525;-79
2021/09/07 06:25:31;;;;;;;7.12;4.90;;;;;;;17.26;65.37;101655.38;1714924;82;21532;-79
2021/09/07 06:27:58;;;;;;;11.00;5.53;;;;;;;17.55;65.40;101654.13;1731163;81;21522;-79
2021/09/07 06:30:24;;;;;;;9.58;5.92;;;;;;;17.87;65.29;101651.89;1720290;82;21051;-79
2021/09/07 06:32:50;;;;;;;8.38;5.55;;;;;;;18.12;65.12;101654.18;1721060;82;21535;-79
2021/09/07 06:35:17;;;;;;;13.70;6.28;;;;;;;18.37;65.13;101656.86;1716133;82;20938;-79
2021/09/07 06:37:45;;;;;;;12.78;5.60;;;;;;;18.60;65.03;101652.66;1716334;82;20973;-79
2021/09/07 06:40:12;;;;;;;6.17;4.97;;;;;;;18.74;64.91;101660.47;1725134;82;21496;-79
2021/09/07 06:42:38;;;;;;;10.82;5.72;;;;;;;18.83;64.75;101656.23;1725703;82;21105;-79
2021/09/07 06:45:09;;;;;;;8.60;5.17;;;;;;;18.89;64.68;101656.48;1733179;82;21379;-79
2021/09/07 06:47:35;;;;;;;5.70;4.67;;;;;;;18.92;64.63;101653.75;1716860;82;21380;-79
2021/09/07 06:50:02;;;;;;;12.68;5.92;;;;;;;19.01;64.59;101657.83;1707585;82;20947;-79
2021/09/07 06:52:32;;;;;;;9.40;6.28;;;;;;;19.03;64.46;101655.55;1713641;82;21768;-79
2021/09/07 06:54:59;;;;;;;12.43;5.50;;;;;;;19.05;64.46;101655.05;1693370;82;21458;-79
2021/09/07 06:57:26;;;;;;;11.70;6.20;;;;;;;19.13;64.43;101654.78;1715922;82;21473;-79
2021/09/07 06:59:54;;;;;;;;;;;;;;;19.20;64.34;101653.66;1708229;82;21878;-79
2021/09/07 07:02:21;;;;;;;8.55;4.95;;;;;;;19.30;63.73;101658.95;1717649;82;20184;-79
2021/09/07 07:04:48;;;;;;;10.38;4.83;;;;;;;19.50;64.19;101660.86;1714006;82;21631;-79
2021/09/07 07:07:14;;;;;;;7.30;5.00;;;;;;;19.72;64.13;101664.90;1716937;82;21513;-79
2021/09/07 07:09:41;;;;;;;11.35;5.30;;;;;;;19.99;64.08;101662.98;1715199;82;21089;-79
2021/09/07 07:12:08;;;;;;;6.65;5.35;;;;;;;20.20;63.83;101660.84;1716847;82;21557;-79
2021/09/07 07:14:34;;;;;;;9.15;4.92;;;;;;;20.30;63.62;101660.84;1714647;82;21083;-79
2021/09/07 07:17:00;;;;;;;10.68;5.58;;;;;;;20.32;63.53;101660.78;1715665;82;21052;-79
2021/09/07 07:19:27;;;;;;;12.30;6.33;;;;;;;20.28;63.47;101659.19;1724088;82;21497;-79
2021/09/07 07:21:53;;;;;;;7.25;5.22;;;;;;;20.25;63.40;101661.51;1722105;82;21483;-79
2021/09/07 07:24:19;;;;;;;7.03;4.77;;;;;;;20.24;63.28;101661.11;1712636;82;21674;-79
2021/09/07 07:26:46;;;;;;;8.48;4.65;;;;;;;20.23;63.16;101666.42;1708786;82;21683;-79
2021/09/07 07:29:13;;;;;;;6.90;4.75;;;;;;;20.28;63.13;101668.38;1687747;83;757657;-79
2021/09/07 07:31:40;;;;;;;11.33;5.22;;;;;;;20.37;63.07;101673.27;1689912;83;20911;-79
2021/09/07 07:34:06;;;;;;;10.13;4.50;;;;;;;20.48;63.03;101677.22;1662620;84;21334;-79
2021/09/07 07:36:38;;;;;;;6.90;4.40;;;;;;;20.60;62.87;101685.52;1668034;84;21385;-79
2021/09/07 07:39:05;;;;;;;7.87;4.95;;;;;;;20.72;62.76;101690.28;1663584;84;21464;-79
2021/09/07 07:41:31;;;;;;;9.25;4.83;;;;;;;21.00;62.80;101687.33;1670853;83;20912;-79
2021/09/07 07:43:58;;;;;;;4.95;3.83;;;;;;;21.26;62.44;101689.74;1652779;84;21430;-79
2021/09/07 07:46:24;;;;;;;6.67;4.72;;;;;;;21.58;62.11;101690.93;1669337;84;20959;-79
2021/09/07 07:48:50;;;;;;;6.17;4.53;;;;;;;22.02;61.72;101693.33;1666504;84;21449;-79
2021/09/07 07:51:17;;;;;;;7.33;4.37;;;;;;;22.37;61.36;101695.59;1667783;84;21373;-79
2021/09/07 07:53:43;;;;;;;6.45;4.67;;;;;;;22.55;61.04;101688.11;1648428;85;21404;-79
2021/09/07 07:56:10;;;;;;;8.33;5.80;;;;;;;22.49;60.86;101692.83;1650832;84;21484;-79
2021/09/07 07:58:39;;;;;;;13.18;5.45;;;;;;;22.36;60.83;101694.73;1652417;84;21345;-79
2021/09/07 08:01:05;;;;;;;10.30;5.35;;;;;;;22.32;60.93;101689.72;1658884;84;21504;-79
2021/09/07 08:03:33;;;;;;;8.60;5.10;;;;;;;22.37;60.85;101690.31;1660015;84;21569;-79
2021/09/07 08:06:00;;;;;;;6.80;5.20;;;;;;;22.43;60.69;101691.34;1664212;84;20917;-79
2021/09/07 08:08:26;;;;;;;8.23;4.53;;;;;;;22.45;60.64;101686.85;1661743;84;21311;-79
2021/09/07 08:10:54;;;;;;;5.58;3.90;;;;;;;22.56;60.52;101686.33;1661814;84;21519;-79
2021/09/07 08:13:21;;;;;;;4.97;4.08;;;;;;;22.66;60.52;101692.40;1661967;84;21592;-79
2021/09/07 08:15:47;;;;;;;9.40;4.60;;;;;;;22.82;60.30;101690.35;1665509;84;20948;-79
2021/09/07 08:18:13;;;;;;;5.45;4.72;;;;;;;22.75;60.10;101690.63;1672013;84;21536;-79
2021/09/07 08:20:39;;;;;;;5.05;4.17;;;;;;;22.66;59.86;101686.27;1671275;84;21323;-80
2021/09/07 08:23:06;;;;;;;11.85;4.37;;;;;;;22.67;59.73;101682.70;1659867;84;20936;-80
2021/09/07 08:25:32;;;;;;;9.75;4.50;;;;;;;22.65;59.67;101686.73;1670882;84;21044;-80
2021/09/07 08:27:58;;;;;;;9.98;4.20;;;;;;;22.69;59.58;101686.97;1660017;84;21088;-80
2021/09/07 08:30:25;;;;;;;4.97;4.08;;;;;;;22.71;59.42;101694.34;1660691;84;21474;-80
2021/09/07 08:32:52;;;;;;;7.45;3.70;;;;;;;22.71;59.18;101697.45;1675778;84;21578;-80
2021/09/07 08:35:19;;;;;;;8.35;3.55;;;;;;;22.69;58.92;101688.76;1662996;83;21111;-80
2021/09/07 08:37:45;;;;;;;4.50;3.87;;;;;;;22.85;58.84;101692.84;1670519;84;21126;-80
2021/09/07 08:40:13;;;;;;;4.10;3.65;;;;;;;23.09;58.68;101702.98;1662209;83;21468;-80
2021/09/07 08:42:40;;;;;;;4.72;3.83;;;;;;;23.42;59.14;101708.28;1664472;84;21318;-80
2021/09/07 08:45:11;;;;;;;6.30;4.17;;;;;;;23.92;59.72;101711.34;1666883;84;21734;-80
2021/09/07 08:47:38;;;;;;;10.25;4.10;;;;;;;24.58;59.69;101711.18;1682050;83;21107;-80
2021/09/07 08:50:05;;;;;;;4.78;3.90;;;;;;;25.28;59.29;101709.70;1664168;84;21111;-80
2021/09/07 08:52:32;;;;;;;7.25;4.20;;;;;;;26.01;58.78;101719.72;1661968;84;21071;-80
2021/09/07 08:54:58;;;;;;;5.55;4.00;;;;;;;26.62;57.89;101721.56;1658814;84;21110;-80
2021/09/07 08:57:24;;;;;;;5.28;3.55;;;;;;;27.03;57.17;101722.32;1665395;84;21094;-80
2021/09/07 09:00:05;;;;;;;9.00;3.80;;;;;;;26.53;55.75;101727.00;1668662;84;21098;-80
2021/09/07 09:02:44;;;;;;;10.85;3.98;;;;;;;25.42;55.93;101723.44;1664596;84;20960;-80
2021/09/07 09:05:11;;;;;;;4.47;3.70;;;;;;;24.54;55.74;101718.91;1653334;85;21082;-80
2021/09/07 09:07:38;;;;;;;9.25;5.00;;;;;;;23.85;55.63;101715.28;1665632;84;21064;-80
2021/09/07 09:10:06;;;;;;;9.60;3.75;;;;;;;23.40;55.70;101715.89;1662734;84;21492;-80
2021/09/07 09:12:41;;;;;;;9.15;3.95;;;;;;;23.07;55.47;101718.50;1658861;84;21146;-80
2021/09/07 09:15:15;;;;;;;5.15;3.98;;;;;;;22.68;55.06;101709.00;1664616;84;21056;-80
2021/09/07 09:17:42;;;;;;;5.25;3.22;;;;;;;22.35;54.95;101718.56;1587134;88;21113;-80
2021/09/07 09:20:16;;;;;;;4.62;3.15;;;;;;;22.17;54.73;101712.83;1611342;86;21139;-80
2021/09/07 09:22:50;;;;;;;5.85;3.55;;;;;;;21.98;54.56;101717.60;1624316;86;21064;-80
2021/09/07 09:25:28;;;;;;;4.33;3.50;;;;;;;21.86;54.44;101714.20;1606708;86;21076;-80
2021/09/07 09:28:08;;;;;;;3.47;2.98;;;;;;;21.72;54.17;101717.49;1607418;86;21096;-80
2021/09/07 09:30:39;;;;;;;5.50;3.55;;;;;;;21.60;54.05;101715.41;1613881;86;21080;-80
2021/09/07 09:33:07;;;;;;;5.20;3.22;;;;;;;21.55;53.89;101713.91;1638921;85;20964;-80
2021/09/07 09:35:50;;;;;;;5.47;3.30;;;;;;;21.51;53.76;101716.27;1639852;86;21357;-80
2021/09/07 09:38:18;;;;;;;4.35;2.65;;;;;;;21.43;53.48;101711.34;1631228;86;20968;-80
2021/09/07 09:40:53;;;;;;;3.75;2.85;;;;;;;21.36;53.44;101705.49;1632651;86;21333;-80
2021/09/07 09:43:38;;;;;;;6.78;3.25;;;;;;;21.35;53.24;101708.19;1628690;85;20973;-80
2021/09/07 09:46:25;;;;;;;4.22;3.15;;;;;;;21.32;53.14;101708.32;1630900;86;21327;-80
2021/09/07 09:49:13;;;;;;;4.87;3.12;;;;;;;21.29;53.01;101702.77;1630101;86;20915;-80
2021/09/07 09:51:46;;;;;;;6.00;2.70;;;;;;;21.29;52.82;101703.22;1630823;86;20943;-80
2021/09/07 09:54:12;;;;;;;5.80;2.70;;;;;;;21.26;52.74;101695.46;1646858;84;20964;-80
2021/09/07 09:56:39;;;;;;;6.65;3.45;;;;;;;21.24;52.61;101699.94;1682706;84;21490;-80
2021/09/07 09:59:07;;;;;;;6.72;3.20;;;;;;;21.25;52.46;101707.77;1679077;84;21267;-80
2021/09/07 10:01:34;;;;;;;11.57;3.05;;;;;;;21.22;52.43;101701.31;1668454;84;20927;-80
2021/09/07 10:04:05;;;;;;;7.75;2.95;;;;;;;21.26;52.39;101713.88;1678797;84;21396;-80
2021/09/07 10:06:31;;;;;;;7.62;3.58;;;;;;;21.30;52.28;101699.67;1674616;83;20912;-80
2021/09/07 10:08:58;;;;;;;4.80;2.87;;;;;;;21.30;52.13;101702.30;1673554;84;20881;-80
2021/09/07 10:11:27;;;;;;;5.22;2.90;;;;;;;21.29;52.07;101701.45;1677768;84;20924;-79
2021/09/07 10:13:58;;;;;;;5.00;3.00;;;;;;;21.33;52.02;101705.63;1676233;84;21282;-79
2021/09/07 10:16:39;;;;;;;8.25;2.85;;;;;;;21.33;51.88;101706.09;1681194;84;21392;-79
2021/09/07 10:19:13;;;;;;;4.17;2.67;;;;;;;21.34;51.78;101702.08;1716692;80;21111;-79
2021/09/07 10:24:20;;;;;;;3.73;2.87;;;;;;;21.49;51.69;101697.92;1717021;82;20901;-79
2021/09/07 10:26:51;;;;;;;4.00;3.22;;;;;;;21.49;51.44;101696.60;1711706;82;20953;-79
2021/09/07 10:29:35;;;;;;;4.37;2.60;;;;;;;21.51;51.43;101700.48;1714150;82;20981;-79
2021/09/07 10:32:05;;;;;;;4.40;3.08;;;;;;;21.52;51.32;101704.36;1673731;83;21071;-79
2021/09/07 10:34:39;;;;;;;9.80;3.25;;;;;;;21.55;51.22;101697.64;1676615;83;21088;-79
2021/09/07 10:37:08;;;;;;;2.62;2.22;;;;;;;21.56;51.07;101694.55;1667165;83;21011;-79
2021/09/07 10:39:44;;;;;;;4.45;2.67;;;;;;;21.59;51.09;101691.33;1678748;83;21076;-79
2021/09/07 10:42:14;;;;;;;4.97;2.92;;;;;;;21.63;50.95;101686.31;1664971;83;21072;-79
2021/09/07 10:44:43;;;;;;;3.98;3.08;;;;;;;21.66;50.91;101687.95;1661732;84;21084;-79
2021/09/07 10:47:14;;;;;;;8.90;3.05;;;;;;;21.68;50.85;101690.91;1677315;83;21124;-79
2021/09/07 10:49:53;;;;;;;5.92;2.70;;;;;;;21.69;50.71;101686.04;1678779;83;20972;-79
2021/09/07 10:52:25;;;;;;;3.77;2.90;;;;;;;21.75;50.73;101687.55;1678205;83;20965;-79
2021/09/07 10:54:57;;;;;;;3.47;3.00;;;;;;;21.82;50.70;101686.34;1673942;83;20933;-79
2021/09/07 10:57:44;;;;;;;5.03;2.98;;;;;;;21.89;50.57;101680.30;1673281;83;21084;-79
2021/09/07 11:00:25;;;;;;;5.37;3.00;;;;;;;21.96;50.44;101687.84;1680917;83;21120;-79
2021/09/07 11:03:00;;;;;;;4.97;2.55;;;;;;;21.94;50.28;101691.02;1678645;83;21489;-79
2021/09/07 11:05:36;;;;;;;6.45;3.10;;;;;;;21.96;50.31;101686.53;1677588;83;21084;-79
2021/09/07 11:08:16;;;;;;;5.92;2.98;;;;;;;22.02;50.23;101691.55;1677234;83;21059;-79
2021/09/07 11:10:52;;;;;;;6.12;2.60;;;;;;;22.02;50.11;101694.64;1680880;83;20910;-79
2021/09/07 11:13:25;;;;;;;4.60;3.30;;;;;;;22.03;50.01;101693.72;1679067;83;21572;-79
2021/09/07 11:16:02;;;;;;;4.97;2.98;;;;;;;22.02;49.99;101690.69;1683304;83;21084;-79
2021/09/07 11:18:34;;;;;;;3.25;2.95;;;;;;;22.04;49.99;101684.89;1680237;83;21123;-79
2021/09/07 11:21:07;;;;;;;5.30;3.40;;;;;;;22.07;49.89;101686.92;1678534;83;21140;-79
2021/09/07 11:23:38;;;;;;;6.37;2.70;;;;;;;22.12;49.79;101685.39;1685734;83;20973;-80
2021/09/07 11:26:16;;;;;;;6.03;3.08;;;;;;;22.16;49.72;101677.73;1685523;83;20933;-80
2021/09/07 11:28:48;;;;;;;3.15;2.80;;;;;;;22.25;49.69;101692.25;1687204;83;20921;-80
2021/09/07 11:31:15;;;;;;;6.85;3.33;;;;;;;22.30;49.59;101684.52;1703401;82;20907;-80